• Join FlightAware (Why Join?)
  • Login
  • US Flag 
Rudolph Flight #1: Arrived! 
02:35PM EST


 

Airport Tracker/Info


-or-


 

Live Flight TrackerFlight Track Log ✈ LOG6848 ✈ 23-Dec-2013 ✈ EGEC / CAL - EGPF / GLA

Flight Track Log - Related Links

Times and Time Zones

All times are in EST time to prevent confusion due to time zone crossing. See the LOG6848 flight status page for this flight to view local times or setup timezone preferences in your user account.

Time Position Orientation Groundspeed Altitude Reporting Facility
EST Latitude Longitude Course Direction KTS MPH feet Rate Location/Type
12:45PM 55.4856 -5.7160 67° East 1 1 4,500  Level FlightAware UK
12:45PM 55.4908 -5.6944 67° East 1 1 5,100 1,500 Climbing FlightAware UK
12:46PM 55.4967 -5.6761 60° Northeast 1 1 5,400 1,320 Climbing FlightAware UK
12:46PM 55.5037 -5.6587 55° Northeast 1 1 5,900 1,320 Climbing FlightAware UK
12:46PM 55.5098 -5.6417 58° Northeast 1 1 6,200 960 Climbing FlightAware UK
12:47PM 55.5176 -5.6164 61° Northeast 1 1 6,600 1,260 Climbing FlightAware UK
12:47PM 55.5231 -5.5965 64° Northeast 1 1 7,100 960 Climbing FlightAware UK
12:47PM 55.5295 -5.5780 59° Northeast 1 1 7,200 780 Climbing FlightAware UK
12:48PM 55.5367 -5.5593 56° Northeast 1 1 7,600 1,140 Climbing FlightAware UK
12:48PM 55.5437 -5.5402 57° Northeast 1 1 7,900 780 Climbing FlightAware UK
12:48PM 55.5498 -5.5191 63° Northeast 1 1 8,100 960 Climbing FlightAware UK
12:48PM 55.5555 -5.4980 65° Northeast 1 1 8,500 960 Climbing FlightAware UK
12:49PM 55.5614 -5.4771 64° Northeast 1 1 8,700 780 Climbing FlightAware UK
12:49PM 55.5708 -5.4574 50° Northeast 1 1 9,000 660 Climbing FlightAware UK
12:49PM 55.5801 -5.4357 53° Northeast 1 1 9,100 120 Climbing FlightAware UK
12:50PM 55.5900 -5.4119 54° Northeast 1 1 9,100  Level FlightAware UK
12:50PM 55.6001 -5.3864 55° Northeast 1 1 9,100 -360 Level FlightAware UK
12:50PM 55.6116 -5.3630 49° Northeast 1 1 8,900  Descending FlightAware UK
12:51PM 55.6246 -5.3404 45° Northeast 1 1 9,100 300 Climbing FlightAware UK
12:51PM 55.6376 -5.3184 44° Northeast 1 1 9,100  Level FlightAware UK
12:51PM 55.6507 -5.2970 43° Northeast 1 1 9,100  Level FlightAware UK
12:51PM 55.6632 -5.2756 44° Northeast 1 1 9,100 -360 Level FlightAware UK
12:52PM 55.6757 -5.2541 44° Northeast 1 1 8,900 -180 Descending FlightAware UK
12:52PM 55.6866 -5.2305 51° Northeast 1 1 9,000 120 Climbing FlightAware UK
12:52PM 55.6967 -5.2067 53° Northeast 1 1 9,000  Level FlightAware UK
12:53PM 55.7068 -5.1825 53° Northeast 1 1 9,000 -360 Level FlightAware UK
12:53PM 55.7171 -5.1579 53° Northeast 1 1 8,800 -720 Descending FlightAware UK
12:53PM 55.7275 -5.1334 53° Northeast 1 1 8,600 -540 Descending FlightAware UK
12:54PM 55.7381 -5.1091 52° Northeast 1 1 8,500 -360 Descending FlightAware UK
12:54PM 55.7489 -5.0847 52° Northeast 1 1 8,400  Descending FlightAware UK
12:54PM 55.7599 -5.0618 50° Northeast 1 1 8,500 -180 Climbing FlightAware UK
12:54PM 55.7709 -5.0396 48° Northeast 1 1 8,300 -720 Descending FlightAware UK
12:55PM 55.7823 -5.0177 47° Northeast 1 1 8,100 -540 Descending FlightAware UK
12:55PM 55.7942 -4.9958 46° Northeast 1 1 8,000 -540 Descending FlightAware UK
12:55PM 55.8061 -4.9737 46° Northeast 1 1 7,800 -720 Descending FlightAware UK
12:56PM 55.8179 -4.9513 47° Northeast 1 1 7,600 -540 Descending FlightAware UK
12:56PM 55.8296 -4.9287 47° Northeast 1 1 7,500 -720 Descending FlightAware UK
12:56PM 55.8409 -4.9059 48° Northeast 1 1 7,200 -840 Descending FlightAware UK
12:57PM 55.8521 -4.8828 49° Northeast 1 1 7,000 -840 Descending FlightAware UK
12:57PM 55.8610 -4.8572 58° Northeast 1 1 6,700 -840 Descending FlightAware UK
12:57PM 55.8705 -4.8315 56° Northeast 1 1 6,500 -840 Descending FlightAware UK
12:57PM 55.8798 -4.8053 58° Northeast 1 1 6,200 -840 Descending FlightAware UK
12:58PM 55.8887 -4.7792 59° Northeast 1 1 6,000 -840 Descending FlightAware UK
12:58PM 55.8971 -4.7525 60° Northeast 1 1 5,700 -1,020 Descending FlightAware UK
12:58PM 55.9054 -4.7254 61° Northeast 1 1 5,400 -840 Descending FlightAware UK
12:59PM 55.9138 -4.6983 61° Northeast 1 1 5,200 -840 Descending FlightAware UK
12:59PM 55.9182 -4.6698 75° East 1 1 4,900 -1,020 Descending FlightAware UK
12:59PM 55.9210 -4.6410 80° East 1 1 4,600 -1,020 Descending FlightAware UK
01:00PM 55.9222 -4.6126 86° East 1 1 4,300 -1,020 Descending FlightAware UK
01:00PM 55.9226 -4.5860 88° East 1 1 4,000 -1,200 Descending FlightAware UK
01:00PM 55.9223 -4.5591 91° East 1 1 3,600 -1,020 Descending FlightAware UK
01:00PM 55.9221 -4.5329 91° East 1 1 3,400 -840 Descending FlightAware UK
01:01PM 55.9218 -4.5070 91° East 1 1 3,100 -840 Descending FlightAware UK
01:01PM 55.9216 -4.4815 91° East 1 1 2,900 -720 Descending FlightAware UK
01:01PM 55.9198 -4.4569 98° East 1 1 2,700 -840 Descending FlightAware UK
01:02PM 55.9155 -4.4373 111° Southeast 1 1 2,400 -720 Descending FlightAware UK
01:02PM 55.9097 -4.4243 129° Southeast 1 1 2,300  Descending FlightAware UK
01:02PM 55.9040 -4.4158 140° Southeast 1 1 2,400  Climbing FlightAware UK
01:03PM 55.8999 -4.4076 132° Southeast 1 1 2,300 -840 Descending FlightAware UK
01:03PM 55.8951 -4.4004 140° Southeast 1 1 1,900 -1,020 Descending FlightAware UK
01:03PM 55.8889 -4.4036 196° South 1 1 1,700 -720 Descending FlightAware UK
01:03PM 55.8848 -4.4095 218° Southwest 1 1 1,500 -540 Descending FlightAware UK
01:04PM 55.8807 -4.4166 224° Southwest 1 1 1,400 -540 Descending FlightAware UK
01:04PM 55.8768 -4.4233 224° Southwest 1 1 1,200 -360 Descending FlightAware UK
01:04PM 55.8742 -4.4284 228° Southwest 1 1 1,200 120 Level FlightAware UK
01:05PM 55.8725 -4.4314 225° Southwest 1 1 1,300 120 Climbing FlightAware UK
01:05PM 55.8704 -4.4351 225° Southwest 1 1 1,300  Level FlightAware UK
01:05PM 55.8686 -4.4371 211° Southwest 1 1 1,300  Level FlightAware UK
01:06PM 55.8668 -4.4380 195° South 1 1 1,300  Level FlightAware UK
01:08PM 55.8719 -4.4331 28° Northeast  Level Estimated
01:15PM 55.8719 -4.4331 29° Northeast  Level Estimated
01:16PM 55.8719 -4.4331 29° Northeast  Level Estimated
01:17PM 55.8719 -4.4331 29° Northeast  Level Estimated
01:18PM 55.8719 -4.4331 29° Northeast  Level Estimated
01:19PM 55.8719 -4.4331 29° Northeast  Level Estimated
01:20PM 55.8719 -4.4331 29° Northeast  Level Estimated
01:21PM 55.8719 -4.4331 29° Northeast  Level Estimated
01:22PM 55.8719 -4.4331 29° Northeast  Level Estimated
01:23PM 55.8719 -4.4331 29° Northeast  Level Estimated
01:24PM 55.8719 -4.4331 29° Northeast  Level Estimated
01:25PM 55.8719 -4.4331 29° Northeast  Level Estimated
01:26PM 55.8719 -4.4331 29° Northeast  Level Estimated
01:27PM 55.8719 -4.4331 29° Northeast  Level Estimated
01:28PM 55.8719 -4.4331 29° Northeast  Level Estimated
01:29PM 55.8719 -4.4331 29° Northeast  Level Estimated
01:30PM 55.8719 -4.4331 29° Northeast  Level Estimated
01:31PM 55.8719 -4.4331 29° Northeast  Level Estimated
01:32PM 55.8719 -4.4331 29° Northeast  Level Estimated
01:33PM 55.8719 -4.4331 29° Northeast  Level Estimated
01:34PM 55.8719 -4.4331 29° Northeast  Level Estimated
01:35PM 55.8719 -4.4331 29° Northeast  Level Estimated
01:36PM 55.8719 -4.4331 29° Northeast  Level Estimated
01:37PM 55.8719 -4.4331 29° Northeast  Level Estimated
01:38PM 55.8719 -4.4331 29° Northeast  Level Estimated
01:39PM 55.8719 -4.4331 29° Northeast  Level Estimated
01:40PM 55.8719 -4.4331 29° Northeast  Level Estimated
01:41PM 55.8719 -4.4331 29° Northeast  Level Estimated
01:42PM 55.8719 -4.4331 29° Northeast  Level Estimated
01:43PM 55.8719 -4.4331 29° Northeast  Level Estimated
01:44PM 55.8719 -4.4331 29° Northeast  Level Estimated
01:45PM 55.8719 -4.4331 29° Northeast  Level Estimated
01:46PM 55.8719 -4.4331 29° Northeast  Level Estimated